Time;durP1;ratioP1;P1;durP2;ratioP2;P2;SDS_P1;SDS_P2;PMS_P1;PMS_P2;Temp;Humidity;BMP_temperature;BMP_pressure;BME280_temperature;BME280_humidity;BME280_pressure;Samples;Min_cycle;Max_cycle;Signal;HPM_P1;HPM_P2
2023/08/18 00:01:23;;;;;;;1.63;1.27;;;;;;;22.18;90.06;100681.53;5041463;28;20504;-70
2023/08/18 00:03:48;;;;;;;1.55;1.10;;;;;;;22.21;90.28;100682.13;5041049;28;20033;-70
2023/08/18 00:06:14;;;;;;;3.38;1.38;;;;;;;22.16;90.53;100678.28;5047619;28;20029;-70
2023/08/18 00:08:39;;;;;;;2.30;1.40;;;;;;;22.15;90.80;100676.66;5043282;28;20021;-70
2023/08/18 00:11:05;;;;;;;2.60;1.15;;;;;;;22.18;90.55;100676.22;5043391;28;20090;-70
2023/08/18 00:13:30;;;;;;;2.53;1.40;;;;;;;22.21;90.62;100667.03;5044244;28;20407;-70
2023/08/18 00:15:56;;;;;;;3.08;1.67;;;;;;;22.23;90.52;100672.06;5041719;28;20121;-70
2023/08/18 00:18:21;;;;;;;2.42;1.50;;;;;;;22.22;90.91;100663.31;5045928;28;20091;-70
2023/08/18 00:20:50;;;;;;;3.95;1.42;;;;;;;22.20;91.13;100664.56;5048936;28;20037;-70
2023/08/18 00:23:16;;;;;;;3.58;1.70;;;;;;;22.18;91.18;100664.78;5052105;28;20064;-71
2023/08/18 00:25:42;;;;;;;2.75;1.45;;;;;;;22.18;91.17;100670.09;5054685;28;20068;-70
2023/08/18 00:28:07;;;;;;;3.35;1.90;;;;;;;22.15;91.41;100655.41;5045234;28;20465;-70
2023/08/18 00:30:32;;;;;;;3.55;1.48;;;;;;;22.12;91.76;100655.84;5049026;28;20082;-70
2023/08/18 00:32:58;;;;;;;1.92;1.30;;;;;;;22.12;91.38;100655.84;5051110;28;20078;-70
2023/08/18 00:35:24;;;;;;;8.43;1.73;;;;;;;22.07;92.13;100663.63;5049713;28;20049;-70
2023/08/18 00:37:49;;;;;;;4.50;1.55;;;;;;;22.04;92.34;100664.06;5051301;28;20119;-70
2023/08/18 00:40:15;;;;;;;4.13;1.73;;;;;;;21.95;92.87;100661.84;5049626;28;20464;-71
2023/08/18 00:42:41;;;;;;;3.17;1.80;;;;;;;21.89;93.36;100655.56;5047413;28;20164;-70
2023/08/18 00:45:07;;;;;;;1.48;1.33;;;;;;;21.88;93.38;100656.59;5041507;28;20068;-70
2023/08/18 00:47:34;;;;;;;7.57;1.90;;;;;;;21.87;93.49;100641.69;5047806;28;20116;-70
2023/08/18 00:50:01;;;;;;;3.83;1.95;;;;;;;21.88;93.59;100643.31;5045953;28;20036;-70
2023/08/18 00:52:26;;;;;;;2.50;1.90;;;;;;;21.91;93.10;100640.25;5046431;28;20477;-70
2023/08/18 00:54:52;;;;;;;3.33;2.63;;;;;;;21.99;92.85;100645.28;5048570;28;20052;-70
2023/08/18 00:57:19;;;;;;;3.95;2.47;;;;;;;22.01;92.66;100635.31;5050969;28;20035;-70
2023/08/18 00:59:46;;;;;;;3.38;2.13;;;;;;;22.04;92.92;100626.09;5048014;28;20170;-70
2023/08/18 01:02:11;;;;;;;2.17;1.88;;;;;;;22.05;92.67;100617.94;5044085;28;20031;-70
2023/08/18 01:04:37;;;;;;;4.50;2.50;;;;;;;22.07;92.30;100613.22;5046848;28;20393;-70
2023/08/18 01:07:04;;;;;;;4.40;2.55;;;;;;;22.08;92.31;100617.50;5051594;28;20028;-70
2023/08/18 01:09:31;;;;;;;2.85;2.42;;;;;;;22.09;92.52;100618.31;5051131;28;20024;-71
2023/08/18 01:12:02;;;;;;;2.85;2.53;;;;;;;22.04;93.14;100620.81;5049101;28;20063;-71
2023/08/18 01:14:52;;;;;;;2.78;2.53;;;;;;;21.95;94.13;100622.06;5045272;28;20048;-71
2023/08/18 01:17:27;;;;;;;3.78;2.28;;;;;;;21.89;94.15;100613.13;5047422;28;20119;-70
2023/08/18 01:19:53;;;;;;;;;;;;;;;21.85;95.52;100619.88;5050109;28;20056;-70
2023/08/18 01:22:19;;;;;;;4.45;3.08;;;;;;;21.93;93.18;100616.97;5060971;28;19917;-70
2023/08/18 01:24:44;;;;;;;5.82;3.20;;;;;;;22.04;92.69;100612.84;5050975;28;20477;-70
2023/08/18 01:27:10;;;;;;;3.78;2.67;;;;;;;22.09;92.13;100611.16;5050205;28;20086;-70
2023/08/18 01:29:36;;;;;;;3.70;2.65;;;;;;;22.11;92.32;100611.78;5049063;28;20028;-70
2023/08/18 01:32:05;;;;;;;3.63;2.55;;;;;;;22.08;92.79;100608.72;5049629;28;20025;-71
2023/08/18 01:34:32;;;;;;;3.50;2.97;;;;;;;22.02;93.02;100614.91;5049209;28;20072;-70
2023/08/18 01:36:59;;;;;;;3.58;2.72;;;;;;;21.95;94.42;100606.97;5047360;28;20029;-70
2023/08/18 01:39:26;;;;;;;4.10;2.88;;;;;;;21.82;95.51;100613.16;5049000;28;20028;-71
2023/08/18 01:41:52;;;;;;;2.88;2.13;;;;;;;21.77;96.03;100609.53;5051080;28;20043;-71
2023/08/18 01:44:18;;;;;;;3.13;2.33;;;;;;;21.79;95.32;100602.16;5051389;28;20025;-70
2023/08/18 01:46:46;;;;;;;4.80;2.35;;;;;;;21.77;95.66;100598.91;5048855;28;20182;-71
2023/08/18 01:49:12;;;;;;;3.10;2.42;;;;;;;21.69;96.06;100592.06;5046140;28;20032;-70
2023/08/18 01:51:37;;;;;;;6.50;2.75;;;;;;;21.66;96.40;100591.66;5050626;28;20039;-71
2023/08/18 01:54:03;;;;;;;3.88;1.98;;;;;;;21.59;97.04;100596.19;5047051;28;20495;-70
2023/08/18 01:56:28;;;;;;;5.10;2.13;;;;;;;21.58;97.07;100594.56;5050578;28;20040;-70
2023/08/18 01:58:54;;;;;;;3.50;2.30;;;;;;;21.56;97.04;100593.97;5052038;28;20442;-70
2023/08/18 02:01:19;;;;;;;4.05;2.63;;;;;;;21.54;97.29;100588.88;5050480;28;20064;-70
2023/08/18 02:03:44;;;;;;;3.40;2.10;;;;;;;21.53;97.34;100577.47;5049781;28;20032;-71
2023/08/18 02:06:10;;;;;;;3.47;2.33;;;;;;;21.51;97.74;100582.16;5049414;28;20036;-71
2023/08/18 02:08:35;;;;;;;8.15;2.42;;;;;;;21.50;97.80;100569.94;5046204;28;20025;-70
2023/08/18 02:11:02;;;;;;;3.95;2.70;;;;;;;21.50;97.87;100572.59;5045910;28;20025;-70
2023/08/18 02:13:28;;;;;;;7.35;2.70;;;;;;;21.49;97.69;100578.91;5049827;28;20029;-70
2023/08/18 02:15:54;;;;;;;3.30;2.63;;;;;;;21.50;97.88;100582.38;5052866;28;20040;-70
2023/08/18 02:18:19;;;;;;;3.50;3.15;;;;;;;21.56;97.85;100586.03;5052156;28;20449;-70
2023/08/18 02:20:45;;;;;;;5.55;3.38;;;;;;;21.55;97.79;100589.69;5049035;28;20075;-71
2023/08/18 02:23:10;;;;;;;2.80;2.53;;;;;;;21.52;98.02;100585.63;5052621;28;20021;-71
2023/08/18 02:25:36;;;;;;;3.38;2.92;;;;;;;21.49;98.29;100588.72;5054291;28;20083;-70
2023/08/18 02:28:01;;;;;;;4.28;2.33;;;;;;;21.40;99.12;100580.19;5056246;28;20020;-70
2023/08/18 02:30:26;;;;;;;3.13;2.80;;;;;;;21.38;99.26;100578.78;5051772;28;20029;-70
2023/08/18 02:32:52;;;;;;;4.60;2.55;;;;;;;21.30;99.79;100584.31;5054495;28;20032;-70
2023/08/18 02:35:17;;;;;;;4.05;3.03;;;;;;;21.29;99.63;100580.84;5053321;28;20045;-70
2023/08/18 02:37:43;;;;;;;2.95;2.53;;;;;;;21.29;99.65;100577.38;5053855;28;20132;-70
2023/08/18 02:40:08;;;;;;;3.13;2.83;;;;;;;21.29;100.00;100580.84;5044188;28;20041;-70
2023/08/18 02:42:35;;;;;;;4.50;3.08;;;;;;;21.32;99.85;100580.44;5056509;28;20078;-70
2023/08/18 02:45:01;;;;;;;3.83;2.83;;;;;;;21.34;99.44;100578.38;5042924;28;20029;-70
2023/08/18 02:47:26;;;;;;;3.72;3.20;;;;;;;21.41;99.21;100584.47;5048758;28;20078;-70
2023/08/18 02:49:52;;;;;;;3.53;3.15;;;;;;;21.49;98.79;100584.22;5048661;28;20078;-70
2023/08/18 02:52:17;;;;;;;6.57;3.60;;;;;;;21.60;98.09;100584.56;5047362;28;20037;-70
2023/08/18 02:54:43;;;;;;;3.28;2.80;;;;;;;21.59;97.69;100585.59;5048403;28;20036;-70
2023/08/18 02:57:09;;;;;;;9.68;3.60;;;;;;;21.50;98.76;100583.19;5050901;28;20059;-70
2023/08/18 02:59:34;;;;;;;6.22;2.40;;;;;;;21.45;99.05;100590.16;5051382;28;20036;-70
2023/08/18 03:01:59;;;;;;;9.98;3.78;;;;;;;21.43;99.25;100603.63;5040367;28;20168;-70
2023/08/18 03:04:25;;;;;;;4.63;2.90;;;;;;;21.41;99.40;100605.66;5049655;28;20033;-70
2023/08/18 03:06:50;;;;;;;5.95;3.60;;;;;;;21.39;99.89;100605.06;5054043;28;20036;-70
2023/08/18 03:09:16;;;;;;;3.55;3.25;;;;;;;21.43;99.11;100603.63;5055034;28;20029;-70
2023/08/18 03:11:42;;;;;;;3.38;3.08;;;;;;;21.47;99.05;100599.53;5050344;28;20036;-70
2023/08/18 03:14:08;;;;;;;6.03;3.25;;;;;;;21.47;99.76;100604.81;5054007;28;20048;-70
2023/08/18 03:16:34;;;;;;;5.32;3.10;;;;;;;21.39;100.00;100607.72;5045063;28;20040;-70
2023/08/18 03:18:59;;;;;;;3.55;3.25;;;;;;;21.41;100.00;100602.19;5049619;28;20090;-70
2023/08/18 03:21:24;;;;;;;5.85;3.40;;;;;;;21.38;100.00;100608.75;5044884;28;20166;-70
2023/08/18 03:23:50;;;;;;;4.15;3.30;;;;;;;21.37;100.00;100609.75;5056221;28;20036;-70
2023/08/18 03:26:15;;;;;;;3.53;3.22;;;;;;;21.35;100.00;100605.69;5046631;28;20361;-70
2023/08/18 03:28:41;;;;;;;5.90;3.20;;;;;;;21.42;100.00;100611.78;5048533;28;20021;-70
2023/08/18 03:31:07;;;;;;;3.72;3.13;;;;;;;21.50;99.28;100612.34;5050564;28;20051;-70
2023/08/18 03:33:33;;;;;;;4.20;2.60;;;;;;;21.59;98.75;100606.81;5045175;28;20499;-70
2023/08/18 03:35:58;;;;;;;4.40;3.38;;;;;;;21.55;98.84;100609.06;5048613;28;20055;-70
2023/08/18 03:38:25;;;;;;;3.85;2.72;;;;;;;21.55;98.83;100616.19;5048978;28;20029;-70
2023/08/18 03:40:57;;;;;;;3.30;3.00;;;;;;;21.60;98.72;100616.38;5053471;28;20036;-70
2023/08/18 03:43:23;;;;;;;3.83;2.80;;;;;;;21.58;98.56;100619.25;5056018;28;20203;-70
2023/08/18 03:45:49;;;;;;;4.22;2.92;;;;;;;21.53;98.98;100619.06;5051408;28;20066;-70
2023/08/18 03:48:14;;;;;;;4.32;3.40;;;;;;;21.51;99.21;100626.41;5054982;28;20156;-70
2023/08/18 03:50:39;;;;;;;7.32;3.67;;;;;;;21.49;99.49;100621.31;5051831;28;20072;-70
2023/08/18 03:53:05;;;;;;;3.25;2.95;;;;;;;21.49;99.44;100621.31;5048094;28;20044;-70
2023/08/18 03:55:31;;;;;;;4.28;2.33;;;;;;;21.49;99.63;100623.16;5052500;28;20037;-70
2023/08/18 03:57:56;;;;;;;3.30;3.00;;;;;;;21.46;99.57;100624.41;5056770;28;20037;-70
2023/08/18 04:00:21;;;;;;;4.20;3.08;;;;;;;21.49;99.32;100623.97;5052471;28;20425;-70
2023/08/18 04:02:47;;;;;;;3.58;3.03;;;;;;;21.47;99.48;100619.91;5048381;28;20021;-70
2023/08/18 04:05:13;;;;;;;3.45;3.15;;;;;;;21.45;99.64;100620.13;5051575;28;20126;-70
2023/08/18 04:07:39;;;;;;;3.22;3.03;;;;;;;21.47;99.57;100622.56;5048800;28;20103;-70
2023/08/18 04:10:06;;;;;;;4.63;3.50;;;;;;;21.51;99.02;100621.94;5050410;28;20099;-70
2023/08/18 04:12:31;;;;;;;4.32;3.92;;;;;;;21.59;98.45;100623.53;5055653;28;20052;-70
2023/08/18 04:14:57;;;;;;;4.70;3.92;;;;;;;21.67;97.90;100615.31;5051476;28;20028;-70
2023/08/18 04:17:22;;;;;;;5.65;3.53;;;;;;;21.66;97.54;100612.88;5052200;28;20056;-70
2023/08/18 04:19:48;;;;;;;4.13;3.78;;;;;;;21.66;97.66;100610.22;5047783;28;20032;-70
2023/08/18 04:22:13;;;;;;;4.40;4.03;;;;;;;21.64;97.75;100610.44;5050768;28;20144;-70
2023/08/18 04:24:39;;;;;;;7.38;3.65;;;;;;;21.62;97.89;100612.50;5052723;28;20024;-70
2023/08/18 04:27:04;;;;;;;5.95;3.65;;;;;;;21.55;98.52;100618.84;5049583;28;20353;-70
2023/08/18 04:29:30;;;;;;;4.25;2.97;;;;;;;21.42;100.00;100620.53;5051080;28;20025;-70
2023/08/18 04:31:55;;;;;;;6.03;3.88;;;;;;;21.39;99.84;100618.31;5050962;28;20033;-70
2023/08/18 04:34:21;;;;;;;5.18;3.33;;;;;;;21.42;100.00;100617.91;5053329;28;20040;-70
2023/08/18 04:36:46;;;;;;;3.65;3.35;;;;;;;21.45;99.76;100617.47;5050358;28;20102;-71
2023/08/18 04:39:12;;;;;;;3.53;3.22;;;;;;;21.49;99.96;100623.97;5046865;28;20064;-70
2023/08/18 04:41:37;;;;;;;7.70;4.00;;;;;;;21.51;99.84;100621.13;5050155;28;20035;-70
2023/08/18 04:44:04;;;;;;;4.60;3.38;;;;;;;21.52;99.54;100623.56;5046047;28;20068;-70
2023/08/18 04:46:30;;;;;;;3.97;3.05;;;;;;;21.58;98.83;100621.09;5047597;28;20020;-71
2023/08/18 04:48:55;;;;;;;6.03;3.95;;;;;;;21.62;98.95;100628.41;5050545;28;20094;-70
2023/08/18 04:51:21;;;;;;;3.53;3.22;;;;;;;21.61;99.36;100625.97;5052725;28;20465;-71
2023/08/18 04:53:46;;;;;;;3.70;3.40;;;;;;;21.66;98.67;100631.44;5052117;28;20033;-71
2023/08/18 04:56:12;;;;;;;10.20;4.18;;;;;;;21.63;99.36;100630.03;5046449;28;20036;-71
2023/08/18 04:58:37;;;;;;;5.63;3.17;;;;;;;21.62;99.43;100627.59;5053743;28;20029;-71
2023/08/18 05:01:03;;;;;;;3.67;3.38;;;;;;;21.64;99.23;100630.84;5049936;28;20511;-71
2023/08/18 05:03:29;;;;;;;5.93;3.30;;;;;;;21.64;99.43;100631.66;5050927;28;20113;-69
2023/08/18 05:06:04;;;;;;;4.50;3.45;;;;;;;21.66;99.51;100634.09;5053134;28;20124;-69
2023/08/18 05:08:30;;;;;;;3.83;3.20;;;;;;;21.72;99.20;100627.94;5048036;28;20020;-69
2023/08/18 05:10:57;;;;;;;3.70;3.38;;;;;;;21.75;99.11;100624.84;5050216;28;20111;-69
2023/08/18 05:13:23;;;;;;;5.38;3.65;;;;;;;21.76;98.86;100631.75;5050954;28;20029;-69
2023/08/18 05:15:49;;;;;;;4.72;3.72;;;;;;;21.78;98.75;100632.38;5052725;28;20032;-69
2023/08/18 05:18:14;;;;;;;3.55;3.15;;;;;;;21.81;99.02;100631.94;5050507;28;20054;-69
2023/08/18 05:20:40;;;;;;;3.90;3.58;;;;;;;21.87;98.92;100628.44;5050567;28;20024;-69
2023/08/18 05:23:06;;;;;;;6.20;4.00;;;;;;;21.93;98.33;100624.94;5046591;28;20033;-70
2023/08/18 05:25:31;;;;;;;4.78;3.75;;;;;;;21.96;97.84;100621.84;5046135;28;20024;-69
2023/08/18 05:27:57;;;;;;;8.40;3.85;;;;;;;21.99;98.04;100624.06;5049194;28;20445;-70
2023/08/18 05:30:22;;;;;;;5.47;3.65;;;;;;;22.02;97.60;100618.38;5044767;28;20112;-70
2023/08/18 05:32:48;;;;;;;4.88;3.67;;;;;;;22.12;97.54;100625.84;5056121;28;20037;-70
2023/08/18 05:35:13;;;;;;;6.35;3.80;;;;;;;22.20;96.85;100630.09;5050426;28;20049;-70
2023/08/18 05:37:39;;;;;;;5.80;3.47;;;;;;;22.26;96.64;100621.22;5046519;28;20021;-70
2023/08/18 05:40:05;;;;;;;3.92;3.60;;;;;;;22.28;96.25;100625.28;5047996;28;20053;-70
2023/08/18 05:42:31;;;;;;;6.22;4.20;;;;;;;22.35;96.27;100630.53;5052341;28;20465;-70
2023/08/18 05:44:56;;;;;;;4.78;3.95;;;;;;;22.39;95.96;100626.44;5049672;28;20032;-70
2023/08/18 05:47:21;;;;;;;3.63;3.33;;;;;;;22.45;95.90;100629.03;5046382;28;20048;-70
2023/08/18 05:49:47;;;;;;;3.35;2.75;;;;;;;22.47;95.35;100636.78;5049954;28;20031;-70
2023/08/18 05:52:12;;;;;;;3.88;3.58;;;;;;;22.47;95.64;100640.25;5047184;28;20037;-70
2023/08/18 05:54:38;;;;;;;3.88;3.55;;;;;;;22.55;95.24;100643.66;5041591;28;20083;-70
2023/08/18 05:57:03;;;;;;;7.88;3.53;;;;;;;22.58;95.13;100640.56;5047050;28;20094;-70
2023/08/18 05:59:31;;;;;;;4.13;3.72;;;;;;;22.63;94.91;100640.72;5050205;28;20112;-70
2023/08/18 06:01:56;;;;;;;3.10;2.88;;;;;;;22.68;94.66;100640.88;5053876;28;20059;-70
2023/08/18 06:04:22;;;;;;;4.60;3.05;;;;;;;22.70;94.76;100639.59;5050417;28;20113;-69
2023/08/18 06:06:47;;;;;;;4.10;3.65;;;;;;;22.74;94.06;100638.13;5042585;28;20083;-70
2023/08/18 06:09:13;;;;;;;4.65;3.70;;;;;;;22.83;93.63;100636.03;5044704;28;20021;-70
2023/08/18 06:11:39;;;;;;;5.38;3.60;;;;;;;22.96;93.36;100646.53;5050139;28;20040;-70
2023/08/18 06:14:04;;;;;;;9.77;3.53;;;;;;;23.01;94.20;100635.22;5046751;28;20503;-70
2023/08/18 06:16:29;;;;;;;8.50;3.60;;;;;;;23.01;93.84;100640.53;5052981;28;20107;-68
2023/08/18 06:18:55;;;;;;;5.25;3.30;;;;;;;23.06;93.40;100633.53;5049375;28;20113;-68
2023/08/18 06:21:20;;;;;;;6.65;3.72;;;;;;;23.16;92.72;100636.44;5050268;28;20024;-68
2023/08/18 06:23:46;;;;;;;4.60;2.80;;;;;;;23.21;92.42;100638.44;5049787;28;20052;-68
2023/08/18 06:26:12;;;;;;;6.15;3.80;;;;;;;23.18;92.52;100634.38;5044171;28;20496;-67
2023/08/18 06:28:37;;;;;;;4.85;3.25;;;;;;;23.24;92.76;100626.56;5050102;28;20029;-68
2023/08/18 06:31:06;;;;;;;3.22;2.78;;;;;;;23.25;92.39;100628.19;5049289;28;20051;-68
2023/08/18 06:33:35;;;;;;;3.50;3.03;;;;;;;23.31;92.44;100632.59;5049849;28;20563;-68
2023/08/18 06:36:02;;;;;;;6.68;2.97;;;;;;;23.30;92.39;100628.31;5047273;28;20053;-68
2023/08/18 06:38:27;;;;;;;7.00;3.72;;;;;;;23.26;92.77;100635.13;5050248;28;20032;-68
2023/08/18 06:40:53;;;;;;;7.95;3.30;;;;;;;23.31;92.42;100641.41;5046789;28;20116;-68
2023/08/18 06:43:18;;;;;;;4.53;3.20;;;;;;;23.33;91.38;100647.28;5049873;28;20033;-68
2023/08/18 06:45:44;;;;;;;4.18;2.95;;;;;;;23.37;90.98;100640.50;5049778;28;20029;-68
2023/08/18 06:48:09;;;;;;;3.97;3.67;;;;;;;23.42;90.81;100639.81;5046638;28;20025;-68
2023/08/18 06:50:35;;;;;;;4.18;3.25;;;;;;;23.52;90.35;100644.63;5052058;28;20029;-68
2023/08/18 06:53:00;;;;;;;6.22;3.08;;;;;;;23.60;90.09;100647.81;5047184;28;20084;-68
2023/08/18 06:55:25;;;;;;;5.63;3.50;;;;;;;23.69;89.47;100645.63;5049829;28;20025;-68
2023/08/18 06:57:51;;;;;;;6.10;3.50;;;;;;;23.86;89.01;100651.13;5052465;28;20035;-68
2023/08/18 07:00:18;;;;;;;4.55;3.85;;;;;;;23.88;89.17;100643.72;5050133;28;20033;-68
2023/08/18 07:02:44;;;;;;;5.47;3.13;;;;;;;24.03;87.77;100650.25;5048334;28;20033;-68
2023/08/18 07:05:11;;;;;;;5.97;3.58;;;;;;;24.13;87.75;100647.81;5051910;28;20052;-68
2023/08/18 07:07:37;;;;;;;5.20;3.30;;;;;;;24.24;87.58;100650.72;5053281;28;20182;-68
2023/08/18 07:10:02;;;;;;;9.75;3.20;;;;;;;24.33;86.95;100658.19;5051572;28;20543;-68
2023/08/18 07:12:28;;;;;;;6.22;3.45;;;;;;;24.43;87.08;100657.63;5057054;28;20029;-68
2023/08/18 07:14:53;;;;;;;6.47;3.67;;;;;;;24.55;86.80;100654.97;5041290;28;20048;-67
2023/08/18 07:17:19;;;;;;;3.58;3.28;;;;;;;24.69;86.46;100651.81;5046743;28;20488;-67
2023/08/18 07:19:44;;;;;;;5.32;4.03;;;;;;;24.85;86.17;100662.81;5044917;28;20064;-68
2023/08/18 07:22:09;;;;;;;5.85;3.10;;;;;;;25.01;85.94;100664.78;5052879;28;20052;-68
2023/08/18 07:24:35;;;;;;;3.42;2.88;;;;;;;25.11;85.24;100671.13;5045733;28;20388;-68
2023/08/18 07:27:00;;;;;;;5.55;3.13;;;;;;;25.23;84.83;100664.97;5048442;28;20083;-68
2023/08/18 07:29:26;;;;;;;3.92;3.17;;;;;;;25.34;84.60;100670.25;5055204;28;20048;-68
2023/08/18 07:31:51;;;;;;;3.60;3.40;;;;;;;25.49;85.62;100664.44;5052865;28;20480;-69
2023/08/18 07:34:17;;;;;;;4.65;3.72;;;;;;;25.66;85.33;100664.47;5048692;28;20048;-67
2023/08/18 07:36:43;;;;;;;6.05;3.33;;;;;;;25.83;83.73;100668.00;5057973;28;20028;-68
2023/08/18 07:39:10;;;;;;;4.82;3.38;;;;;;;26.01;82.95;100665.09;5042798;28;20033;-68
2023/08/18 07:41:43;;;;;;;5.75;3.60;;;;;;;26.22;81.35;100670.78;5051688;28;20029;-68
2023/08/18 07:44:08;;;;;;;4.68;3.38;;;;;;;26.33;80.17;100672.59;5047712;28;20029;-68
2023/08/18 07:46:34;;;;;;;4.72;3.58;;;;;;;26.39;79.77;100667.09;5058464;28;20033;-67
2023/08/18 07:49:00;;;;;;;2.97;2.78;;;;;;;26.47;79.76;100665.84;5051409;28;20112;-67
2023/08/18 07:51:25;;;;;;;3.70;2.65;;;;;;;26.57;79.27;100668.69;5049130;28;20067;-68
2023/08/18 07:53:51;;;;;;;3.65;2.97;;;;;;;26.69;79.06;100668.59;5042023;28;20028;-68
2023/08/18 07:56:16;;;;;;;5.90;3.33;;;;;;;26.73;78.54;100672.38;5047292;28;20436;-67
2023/08/18 07:58:42;;;;;;;3.80;2.80;;;;;;;26.76;78.41;100677.25;5048506;28;20401;-67
2023/08/18 08:01:08;;;;;;;3.60;2.80;;;;;;;26.82;78.05;100672.78;5051919;28;20041;-67
2023/08/18 08:03:35;;;;;;;6.28;3.25;;;;;;;26.83;78.87;100666.38;5049447;28;20551;-67
2023/08/18 08:06:04;;;;;;;4.40;3.47;;;;;;;26.94;78.66;100668.91;5044120;28;20098;-67
2023/08/18 08:08:30;;;;;;;8.30;3.22;;;;;;;27.06;78.24;100666.16;5048193;28;20040;-67
2023/08/18 08:10:55;;;;;;;4.68;2.78;;;;;;;27.10;77.94;100665.41;5046441;28;20037;-68
2023/08/18 08:13:21;;;;;;;4.22;3.30;;;;;;;27.14;76.58;100668.41;5046086;28;20037;-68
2023/08/18 08:15:46;;;;;;;2.80;2.60;;;;;;;27.17;73.94;100667.91;5046046;28;20032;-67
2023/08/18 08:18:17;;;;;;;3.97;2.97;;;;;;;27.21;73.38;100674.38;5053514;28;20033;-68
2023/08/18 08:20:43;;;;;;;3.50;3.20;;;;;;;27.32;73.57;100672.66;5060488;28;20027;-67
2023/08/18 08:23:10;;;;;;;3.80;3.50;;;;;;;27.44;73.14;100676.78;5049050;28;20064;-67
2023/08/18 08:25:37;;;;;;;3.28;2.85;;;;;;;27.65;73.14;100674.38;5041224;28;20083;-67
2023/08/18 08:28:03;;;;;;;5.22;2.97;;;;;;;27.95;71.59;100671.16;5048339;28;20021;-67
2023/08/18 08:30:29;;;;;;;5.40;3.47;;;;;;;27.92;72.02;100669.78;5040308;28;20131;-68
2023/08/18 08:32:54;;;;;;;3.83;2.78;;;;;;;27.99;71.67;100675.75;5038218;28;20598;-67
2023/08/18 08:35:21;;;;;;;3.22;2.92;;;;;;;28.11;71.13;100667.56;5050459;28;20119;-67
2023/08/18 08:37:46;;;;;;;4.70;3.30;;;;;;;28.27;70.17;100671.19;5046874;28;20112;-68
2023/08/18 08:40:19;;;;;;;4.00;3.45;;;;;;;28.13;68.99;100669.97;5041233;28;20112;-68
2023/08/18 08:42:48;;;;;;;4.78;3.17;;;;;;;28.20;69.35;100668.72;5043136;28;20040;-68
2023/08/18 08:45:14;;;;;;;8.77;2.80;;;;;;;28.47;68.86;100670.53;5041763;28;20504;-67
2023/08/18 08:47:40;;;;;;;3.58;3.28;;;;;;;28.50;67.92;100670.81;5040529;28;20060;-67
2023/08/18 08:50:06;;;;;;;3.25;2.95;;;;;;;28.40;67.98;100665.38;5042823;28;20063;-67
2023/08/18 08:52:37;;;;;;;3.53;3.15;;;;;;;28.41;68.22;100661.63;5043954;28;20025;-67
2023/08/18 08:55:04;;;;;;;3.33;3.03;;;;;;;28.46;69.29;100664.34;5035732;28;20393;-67
2023/08/18 08:57:29;;;;;;;4.40;3.60;;;;;;;28.45;70.13;100662.75;5039676;28;20396;-67
2023/08/18 08:59:55;;;;;;;3.38;3.08;;;;;;;28.25;69.50;100666.09;5036998;28;20033;-67
2023/08/18 09:02:21;;;;;;;4.55;3.95;;;;;;;28.29;69.29;100658.34;5046327;28;20037;-67
2023/08/18 09:04:47;;;;;;;3.97;3.65;;;;;;;28.38;70.36;100660.28;5036542;28;20045;-67
2023/08/18 09:07:13;;;;;;;6.57;3.30;;;;;;;28.36;70.21;100661.59;5039371;28;20033;-65
2023/08/18 09:09:40;;;;;;;2.80;2.60;;;;;;;28.19;69.58;100663.59;5037378;28;20452;-65
2023/08/18 09:12:07;;;;;;;4.30;3.25;;;;;;;28.02;71.01;100664.53;5045862;28;20120;-65
2023/08/18 09:14:40;;;;;;;4.65;3.22;;;;;;;27.92;70.21;100659.09;5043279;28;20334;-65
2023/08/18 09:17:06;;;;;;;3.33;2.60;;;;;;;27.92;69.83;100661.75;5041693;28;20029;-65
2023/08/18 09:19:32;;;;;;;3.80;3.50;;;;;;;28.10;69.31;100655.22;5044970;28;20174;-64
2023/08/18 09:21:59;;;;;;;5.75;3.50;;;;;;;28.02;69.83;100664.53;5040968;28;20032;-65
2023/08/18 09:24:26;;;;;;;3.80;3.47;;;;;;;28.06;69.99;100662.16;5044026;28;20445;-64
2023/08/18 09:26:52;;;;;;;3.70;3.03;;;;;;;27.99;69.67;100664.22;5046428;28;20041;-65
2023/08/18 09:29:17;;;;;;;3.50;3.20;;;;;;;28.04;68.65;100667.75;5038305;28;20054;-64
2023/08/18 09:31:46;;;;;;;3.65;3.33;;;;;;;28.21;68.62;100656.13;5037675;28;20508;-65
2023/08/18 09:34:22;;;;;;;4.13;3.72;;;;;;;28.29;68.14;100658.34;5038452;28;20028;-62
2023/08/18 09:36:56;;;;;;;4.40;4.00;;;;;;;28.20;69.00;100657.19;5040446;28;20037;-62
2023/08/18 09:39:25;;;;;;;4.30;3.75;;;;;;;28.14;69.20;100663.56;5038381;28;20030;-62
2023/08/18 09:41:52;;;;;;;4.47;4.07;;;;;;;28.13;70.00;100659.25;5039853;28;20025;-63
2023/08/18 09:44:22;;;;;;;3.42;3.13;;;;;;;28.24;69.72;100656.44;5035918;28;20026;-62
2023/08/18 09:47:06;;;;;;;3.75;3.40;;;;;;;27.86;70.21;100657.44;5030870;28;20036;-63
2023/08/18 09:49:37;;;;;;;3.92;3.63;;;;;;;27.85;71.36;100653.16;5042307;28;20026;-63
2023/08/18 09:52:07;;;;;;;4.55;4.20;;;;;;;27.97;71.11;100650.28;5038199;28;20089;-62
2023/08/18 09:54:44;;;;;;;4.47;4.00;;;;;;;28.03;71.03;100639.38;5041339;28;20029;-62
2023/08/18 09:57:25;;;;;;;3.95;3.35;;;;;;;28.14;70.06;100644.81;5041723;28;20035;-62
2023/08/18 09:59:58;;;;;;;5.10;4.07;;;;;;;28.22;69.58;100642.50;5036328;28;20114;-63
2023/08/18 10:02:32;;;;;;;3.97;3.67;;;;;;;28.19;69.08;100636.81;5052418;28;20032;-62
2023/08/18 10:04:58;;;;;;;5.00;3.40;;;;;;;28.34;68.89;100639.66;5044848;28;20077;-62
2023/08/18 10:07:26;;;;;;;3.78;3.47;;;;;;;28.37;67.41;100637.22;5035357;28;20032;-62
2023/08/18 10:09:54;;;;;;;4.63;3.20;;;;;;;28.29;66.33;100642.28;5032857;28;20026;-63
2023/08/18 10:12:20;;;;;;;3.70;3.40;;;;;;;28.32;66.92;100631.06;5042592;28;20421;-63
2023/08/18 10:14:47;;;;;;;4.28;3.40;;;;;;;28.27;67.86;100639.06;5042502;28;20048;-62
2023/08/18 10:17:14;;;;;;;3.42;3.13;;;;;;;28.26;68.59;100637.44;5036314;28;20033;-63
2023/08/18 10:20:00;;;;;;;4.07;3.67;;;;;;;28.20;68.15;100627.72;5039007;28;20032;-63
2023/08/18 10:22:30;;;;;;;3.50;3.20;;;;;;;28.21;68.05;100627.50;5034877;28;20052;-63
2023/08/18 10:24:56;;;;;;;7.00;3.95;;;;;;;28.32;68.28;100628.38;5037545;28;20478;-63
2023/08/18 10:27:25;;;;;;;5.68;3.63;;;;;;;28.33;68.22;100621.94;5040549;28;20361;-62
2023/08/18 10:29:50;;;;;;;4.20;3.08;;;;;;;28.21;68.79;100623.97;5040288;28;20386;-63
2023/08/18 10:32:17;;;;;;;3.97;2.83;;;;;;;28.30;66.86;100625.16;5047484;28;20029;-62
2023/08/18 10:34:43;;;;;;;3.67;3.38;;;;;;;28.51;66.08;100618.03;5052891;28;20052;-62
2023/08/18 10:37:14;;;;;;;5.70;3.42;;;;;;;28.69;65.21;100620.28;5030222;28;20034;-62
2023/08/18 10:39:40;;;;;;;3.53;3.22;;;;;;;28.87;65.06;100621.72;5041862;28;20497;-62
2023/08/18 10:42:15;;;;;;;4.07;3.35;;;;;;;28.80;65.90;100623.81;5043233;28;20036;-63
2023/08/18 10:45:06;;;;;;;3.17;2.90;;;;;;;28.79;64.08;100617.66;5034393;28;20033;-63
2023/08/18 10:47:33;;;;;;;3.75;3.17;;;;;;;28.74;65.50;100615.75;5039156;28;20393;-61
2023/08/18 10:49:59;;;;;;;3.85;3.00;;;;;;;28.73;65.94;100616.81;5045675;28;20155;-63
2023/08/18 10:52:30;;;;;;;5.45;3.08;;;;;;;28.78;66.53;100618.72;5049882;28;20056;-61
2023/08/18 10:54:56;;;;;;;4.80;2.70;;;;;;;28.84;67.05;100619.56;5047843;28;20043;-60
2023/08/18 10:57:23;;;;;;;3.20;3.00;;;;;;;28.89;66.94;100614.22;5049332;28;20123;-60
2023/08/18 10:59:49;;;;;;;8.48;3.08;;;;;;;28.83;65.67;100615.28;5054990;28;20028;-60
2023/08/18 11:02:16;;;;;;;5.20;3.40;;;;;;;28.77;65.15;100610.94;5049398;28;20039;-60
2023/08/18 11:04:42;;;;;;;3.47;2.80;;;;;;;29.04;63.21;100622.31;5051752;28;20037;-60
2023/08/18 11:07:07;;;;;;;3.40;2.95;;;;;;;29.10;62.27;100607.88;5052606;28;20025;-60
2023/08/18 11:09:36;;;;;;;3.95;3.03;;;;;;;29.15;61.85;100609.75;5055718;28;20072;-60
2023/08/18 11:12:03;;;;;;;5.70;3.25;;;;;;;29.18;60.85;100612.72;5054345;28;20044;-61
2023/08/18 11:14:29;;;;;;;3.92;2.95;;;;;;;29.17;61.20;100611.09;5053080;28;20495;-61
2023/08/18 11:16:55;;;;;;;4.32;3.22;;;;;;;29.27;60.59;100611.16;5049690;28;20079;-61
2023/08/18 11:19:20;;;;;;;3.65;3.22;;;;;;;29.12;61.11;100605.72;5044382;28;20108;-60
2023/08/18 11:21:46;;;;;;;3.67;3.38;;;;;;;28.86;62.27;100614.72;5054031;28;20112;-60